RJFZ(METAR)
10/16 18:00
METAR RJFZ 160900Z VRB02KT 9999 FEW035 18/07 Q1022 RMK 1CU035 A3018=
戻る
トップページへ戻る
IMOC Co,.Ltd.